Time;durP1;ratioP1;P1;durP2;ratioP2;P2;SDS_P1;SDS_P2;PMS_P1;PMS_P2;Temp;Humidity;BMP_temperature;BMP_pressure;BME280_temperature;BME280_humidity;BME280_pressure;Samples;Min_cycle;Max_cycle;Signal;HPM_P1;HPM_P2
2024/03/23 08:08:59;;;;;;;28.73;20.50;;;;;;;19.86;39.86;98636.25;5106396;27;20660;-73
2024/03/23 08:11:25;;;;;;;30.13;20.98;;;;;;;18.45;43.19;98633.63;4900580;28;88642;-74
2024/03/23 08:13:51;;;;;;;27.55;20.63;;;;;;;17.54;43.42;98629.00;4971683;28;20053;-75
2024/03/23 08:16:17;;;;;;;28.73;21.00;;;;;;;16.76;45.84;98631.38;5029008;28;20042;-74
2024/03/23 08:18:44;;;;;;;26.98;20.00;;;;;;;16.44;46.80;98630.91;5029604;28;20041;-73
2024/03/23 08:21:10;;;;;;;26.33;19.77;;;;;;;16.41;47.77;98635.44;4995930;28;20084;-73
2024/03/23 08:23:37;;;;;;;27.40;20.88;;;;;;;15.93;47.75;98624.94;4960358;28;20065;-72
2024/03/23 08:26:05;;;;;;;29.33;21.67;;;;;;;15.54;48.26;98622.00;5042117;28;20049;-76
2024/03/23 08:28:32;;;;;;;27.17;20.73;;;;;;;15.66;49.16;98616.28;5027385;28;20053;-73
2024/03/23 08:31:00;;;;;;;28.75;21.23;;;;;;;15.30;48.27;98602.75;5056544;28;20044;-74
2024/03/23 08:33:27;;;;;;;27.52;19.90;;;;;;;15.39;48.78;98610.28;5058211;28;20044;-74
2024/03/23 08:35:54;;;;;;;27.60;20.85;;;;;;;15.28;48.30;98608.06;5062193;28;20521;-74
2024/03/23 08:38:20;;;;;;;29.15;21.83;;;;;;;14.87;49.43;98612.09;5048759;28;20053;-75
2024/03/23 08:40:46;;;;;;;28.20;21.20;;;;;;;14.76;49.73;98612.47;5047359;28;20045;-73
2024/03/23 08:43:14;;;;;;;29.35;21.35;;;;;;;14.64;50.31;98612.88;5047546;28;20468;-73
2024/03/23 08:45:40;;;;;;;37.67;22.83;;;;;;;14.28;51.35;98611.31;5047211;28;20136;-74
2024/03/23 08:48:08;;;;;;;33.42;22.77;;;;;;;13.93;52.59;98610.63;5047231;28;20059;-75
2024/03/23 08:50:34;;;;;;;32.35;22.65;;;;;;;13.87;53.42;98608.19;5047519;28;20051;-74
2024/03/23 08:53:00;;;;;;;35.67;23.60;;;;;;;13.63;53.66;98612.41;5058906;28;20048;-73
2024/03/23 08:55:26;;;;;;;32.83;22.52;;;;;;;13.76;54.79;98612.88;5064390;28;20128;-74
2024/03/23 08:57:53;;;;;;;35.00;22.95;;;;;;;13.70;54.30;98620.91;5050499;28;20499;-73
2024/03/23 09:00:20;;;;;;;33.63;21.77;;;;;;;13.74;54.14;98617.31;5049654;28;20132;-73
2024/03/23 09:02:48;;;;;;;34.17;22.08;;;;;;;13.73;54.12;98613.00;5067173;28;20049;-74
2024/03/23 09:05:14;;;;;;;33.00;23.05;;;;;;;13.46;54.60;98609.41;5059177;28;20051;-73
2024/03/23 09:07:40;;;;;;;34.22;22.85;;;;;;;13.48;54.10;98599.75;5059999;28;20060;-74
2024/03/23 09:10:07;;;;;;;36.85;22.00;;;;;;;13.58;54.77;98598.56;5066054;28;20063;-74
2024/03/23 09:12:34;;;;;;;33.88;21.95;;;;;;;13.72;54.33;98590.31;5054269;28;20061;-73
2024/03/23 09:15:00;;;;;;;32.05;22.48;;;;;;;13.49;54.64;98594.47;5052707;28;20490;-74
2024/03/23 09:17:28;;;;;;;34.33;21.42;;;;;;;13.62;54.64;98594.13;5054466;28;20060;-74
2024/03/23 09:19:53;;;;;;;30.48;20.98;;;;;;;13.63;54.01;98590.56;5045005;28;20438;-73
2024/03/23 09:22:20;;;;;;;32.05;21.95;;;;;;;13.50;54.37;98584.84;5052118;28;20049;-75
2024/03/23 09:24:47;;;;;;;29.85;21.40;;;;;;;13.47;53.87;98582.31;5040428;28;20136;-74
2024/03/23 09:27:14;;;;;;;28.17;20.50;;;;;;;13.52;54.54;98583.91;5040888;28;20057;-74
2024/03/23 09:29:59;;;;;;;30.27;20.27;;;;;;;13.58;54.66;98575.03;5042566;28;20491;-73
2024/03/23 09:32:25;;;;;;;36.50;22.50;;;;;;;13.42;54.85;98576.38;5051987;28;20119;-74
2024/03/23 09:34:52;;;;;;;40.78;20.73;;;;;;;13.44;54.88;98574.56;5047533;28;20572;-74
2024/03/23 09:37:19;;;;;;;31.92;20.80;;;;;;;13.36;54.71;98566.94;5032696;28;20084;-73
2024/03/23 09:39:45;;;;;;;30.33;21.20;;;;;;;13.41;55.57;98565.03;5031658;28;20052;-74
2024/03/23 09:42:12;;;;;;;33.90;21.55;;;;;;;13.44;55.28;98557.09;5031607;28;20049;-74
2024/03/23 09:44:37;;;;;;;33.95;21.98;;;;;;;13.37;55.03;98564.25;5032534;28;20073;-73
2024/03/23 09:47:05;;;;;;;31.50;20.40;;;;;;;13.45;55.16;98564.03;5034751;28;20128;-73
2024/03/23 09:49:32;;;;;;;33.33;22.10;;;;;;;13.46;54.55;98568.38;5041634;28;20119;-73
2024/03/23 09:52:00;;;;;;;33.25;21.35;;;;;;;13.37;54.11;98563.41;5032425;28;20124;-74
2024/03/23 09:54:26;;;;;;;30.13;19.75;;;;;;;13.42;55.25;98561.53;5032572;28;20136;-73
2024/03/23 09:56:52;;;;;;;31.63;21.25;;;;;;;13.26;55.40;98550.59;5032722;28;20050;-73
2024/03/23 09:59:18;;;;;;;32.58;21.25;;;;;;;13.26;54.95;98544.50;5048160;28;20755;-74
2024/03/23 10:01:45;;;;;;;33.13;21.67;;;;;;;13.30;55.54;98540.91;5051919;28;20128;-73
2024/03/23 10:04:12;;;;;;;32.35;21.58;;;;;;;13.05;55.96;98536.38;5052359;28;20143;-75
2024/03/23 10:06:39;;;;;;;34.83;21.88;;;;;;;12.95;56.75;98530.53;5041386;28;20052;-74
2024/03/23 10:09:12;;;;;;;29.65;20.15;;;;;;;13.18;55.83;98532.50;5049059;28;20141;-74
2024/03/23 10:11:38;;;;;;;30.38;21.33;;;;;;;13.10;55.71;98529.22;5037108;28;20080;-74
2024/03/23 10:14:07;;;;;;;35.92;21.95;;;;;;;12.86;56.25;98524.69;5034168;28;20153;-76
2024/03/23 10:16:33;;;;;;;32.08;21.52;;;;;;;12.99;56.10;98515.63;5046629;28;20044;-76
2024/03/23 10:18:59;;;;;;;32.38;21.35;;;;;;;13.12;55.62;98513.50;5051892;28;20080;-74
2024/03/23 10:21:27;;;;;;;31.98;21.38;;;;;;;12.92;55.72;98524.53;5054206;28;20055;-74
2024/03/23 10:23:53;;;;;;;32.42;20.98;;;;;;;12.84;56.36;98518.66;5051168;28;20216;-74
2024/03/23 10:26:22;;;;;;;31.42;20.23;;;;;;;13.09;56.86;98514.47;5040350;28;20041;-74
2024/03/23 10:28:54;;;;;;;30.63;21.30;;;;;;;13.22;55.85;98503.63;5039378;28;20053;-74
2024/03/23 10:31:21;;;;;;;30.58;20.52;;;;;;;13.40;56.11;98497.91;5060987;28;20135;-74
2024/03/23 10:33:47;;;;;;;29.45;20.10;;;;;;;13.54;55.78;98498.34;5068243;28;20072;-73
2024/03/23 10:36:14;;;;;;;34.55;21.58;;;;;;;13.56;54.42;98498.31;5070891;28;20087;-73
2024/03/23 10:38:40;;;;;;;33.70;21.00;;;;;;;13.61;55.29;98498.16;5057279;28;20041;-74
2024/03/23 10:41:08;;;;;;;34.42;22.08;;;;;;;13.75;55.46;98499.47;5052067;28;20132;-74
2024/03/23 10:43:35;;;;;;;34.15;21.00;;;;;;;13.84;54.28;98494.84;5051680;28;20052;-74
2024/03/23 10:46:02;;;;;;;33.63;20.80;;;;;;;13.88;54.74;98486.88;5051605;28;20128;-74
2024/03/23 10:48:28;;;;;;;31.80;21.15;;;;;;;13.75;55.24;98481.16;5051739;28;20146;-73
2024/03/23 10:50:54;;;;;;;33.38;21.92;;;;;;;13.84;55.11;98472.16;5051377;28;20084;-74
2024/03/23 10:53:21;;;;;;;31.85;21.77;;;;;;;13.94;54.83;98465.72;5051669;28;20140;-74
2024/03/23 10:55:47;;;;;;;36.65;22.38;;;;;;;13.99;54.36;98458.56;5051471;28;20131;-73
2024/03/23 10:58:13;;;;;;;35.08;22.45;;;;;;;14.19;54.36;98449.22;5051617;28;20072;-74
2024/03/23 11:00:41;;;;;;;29.77;21.15;;;;;;;14.32;54.50;98453.09;5051573;28;20529;-75
2024/03/23 11:03:31;;;;;;;30.20;22.02;;;;;;;14.35;54.41;98447.78;5051338;28;20047;-74
2024/03/23 11:05:58;;;;;;;34.30;22.17;;;;;;;14.64;53.77;98448.56;5051338;28;20049;-73
2024/03/23 11:08:31;;;;;;;32.80;21.25;;;;;;;14.64;53.33;98440.69;5050820;28;20148;-74
2024/03/23 11:11:13;;;;;;;32.00;21.77;;;;;;;14.61;53.33;98443.41;5051225;28;20071;-74
2024/03/23 11:13:38;;;;;;;33.17;21.50;;;;;;;14.66;53.82;98446.75;5051401;28;20076;-74
2024/03/23 11:16:15;;;;;;;37.10;20.85;;;;;;;14.63;53.37;98438.97;5051075;28;20495;-73
2024/03/23 11:18:41;;;;;;;31.42;19.08;;;;;;;14.68;53.20;98431.81;5051241;28;20661;-74
2024/03/23 11:21:08;;;;;;;28.58;20.58;;;;;;;14.52;53.20;98428.84;5051125;28;20059;-74
2024/03/23 11:23:34;;;;;;;30.38;20.13;;;;;;;14.63;53.64;98423.25;5051188;28;20045;-74
2024/03/23 11:26:01;;;;;;;28.02;19.67;;;;;;;14.60;53.61;98423.38;5050690;28;20510;-74
2024/03/23 11:28:28;;;;;;;32.95;20.25;;;;;;;14.44;53.45;98412.50;5051178;28;20082;-74
2024/03/23 11:30:53;;;;;;;32.28;20.27;;;;;;;14.47;54.05;98409.81;5050812;28;20132;-73
2024/03/23 11:33:22;;;;;;;29.27;20.33;;;;;;;14.52;53.60;98400.03;5050704;28;20140;-74
2024/03/23 11:35:48;;;;;;;29.70;19.45;;;;;;;14.58;53.69;98391.13;5050768;28;20051;-74
2024/03/23 11:38:17;;;;;;;28.10;19.45;;;;;;;14.50;53.92;98387.84;5050511;28;20491;-74
2024/03/23 11:40:44;;;;;;;28.95;19.60;;;;;;;14.58;53.43;98380.63;5050808;28;20442;-74
2024/03/23 11:43:12;;;;;;;26.92;18.90;;;;;;;14.50;54.25;98369.50;5050797;28;20094;-74
2024/03/23 11:45:39;;;;;;;30.83;21.33;;;;;;;14.50;54.02;98370.41;5050519;28;20148;-73
2024/03/23 11:48:07;;;;;;;27.30;20.08;;;;;;;14.68;53.79;98374.13;5050569;28;20049;-73
2024/03/23 11:50:40;;;;;;;28.45;20.55;;;;;;;14.60;53.66;98370.06;5050748;28;20053;-73
2024/03/23 11:53:12;;;;;;;26.58;18.35;;;;;;;14.88;53.90;98359.44;5050567;28;20053;-73
2024/03/23 11:55:46;;;;;;;32.33;20.38;;;;;;;15.04;53.25;98359.69;5050950;28;20135;-73
2024/03/23 11:58:13;;;;;;;31.42;19.05;;;;;;;15.19;52.72;98348.63;5050647;28;20049;-73
2024/03/23 12:00:39;;;;;;;25.45;18.92;;;;;;;15.34;52.51;98344.53;5050819;28;20044;-73
2024/03/23 12:03:06;;;;;;;26.45;19.48;;;;;;;15.49;52.39;98341.31;5050632;28;20055;-73
2024/03/23 12:05:31;;;;;;;26.10;18.88;;;;;;;15.66;52.02;98337.97;5050593;28;20123;-73
2024/03/23 12:08:18;;;;;;;25.13;18.45;;;;;;;15.75;51.49;98337.63;5050162;28;20521;-74
2024/03/23 12:10:45;;;;;;;24.17;18.75;;;;;;;15.73;51.36;98323.72;5050233;28;20136;-74
2024/03/23 12:13:11;;;;;;;24.92;18.80;;;;;;;15.81;51.79;98319.91;5050292;28;20068;-74
2024/03/23 12:15:37;;;;;;;25.27;18.75;;;;;;;15.91;51.38;98308.09;5050472;28;20128;-74
2024/03/23 12:18:09;;;;;;;26.08;20.25;;;;;;;16.07;50.84;98309.16;5050153;28;20754;-74
2024/03/23 12:20:35;;;;;;;26.88;19.48;;;;;;;16.24;50.66;98300.50;5050656;28;20124;-74
2024/03/23 12:23:11;;;;;;;26.35;19.17;;;;;;;16.33;50.52;98302.75;5050407;28;20049;-74
2024/03/23 12:25:38;;;;;;;24.98;19.10;;;;;;;16.36;50.78;98298.28;5050480;28;20048;-74
2024/03/23 12:28:07;;;;;;;26.00;19.75;;;;;;;16.21;50.88;98298.03;5050161;28;20194;-74
2024/03/23 12:30:34;;;;;;;25.88;19.77;;;;;;;16.26;51.21;98285.53;5050349;28;20048;-73
2024/03/23 12:33:00;;;;;;;25.58;19.23;;;;;;;16.47;50.84;98282.88;5050468;28;20045;-73
2024/03/23 12:35:26;;;;;;;30.70;19.23;;;;;;;16.51;50.80;98289.69;5050259;28;20135;-73
2024/03/23 12:37:53;;;;;;;26.95;20.15;;;;;;;16.59;50.68;98287.56;5050238;28;20140;-75
2024/03/23 12:40:19;;;;;;;27.95;19.45;;;;;;;16.64;51.05;98285.59;5050104;28;20045;-74
2024/03/23 12:42:47;;;;;;;28.95;21.48;;;;;;;16.72;50.52;98272.94;5049982;28;20132;-74
2024/03/23 12:45:13;;;;;;;26.42;19.73;;;;;;;16.60;51.03;98272.66;5050467;28;20077;-74
2024/03/23 12:47:39;;;;;;;26.27;19.13;;;;;;;16.72;51.09;98267.66;5050091;28;20378;-73
2024/03/23 12:50:06;;;;;;;23.60;18.80;;;;;;;16.58;50.66;98264.00;5050114;28;20092;-74
2024/03/23 12:52:35;;;;;;;23.88;17.75;;;;;;;16.63;51.07;98252.31;5050259;28;20045;-74
2024/03/23 12:55:01;;;;;;;22.42;16.75;;;;;;;16.76;50.68;98241.22;5052692;28;20052;-74
2024/03/23 12:57:28;;;;;;;22.58;17.02;;;;;;;16.63;50.41;98231.28;5053665;28;20065;-74
2024/03/23 12:59:56;;;;;;;23.85;17.85;;;;;;;16.49;50.88;98229.28;5053991;28;20126;-74
2024/03/23 13:02:23;;;;;;;23.42;17.17;;;;;;;16.56;50.98;98221.16;5053774;28;20048;-74
2024/03/23 13:04:49;;;;;;;24.85;16.27;;;;;;;16.55;51.61;98220.25;5053699;28;20547;-77
2024/03/23 13:07:16;;;;;;;24.67;18.02;;;;;;;16.65;50.74;98211.03;5053344;28;20135;-73
2024/03/23 13:09:43;;;;;;;23.35;16.70;;;;;;;16.67;50.84;98205.69;5053505;28;20587;-73
2024/03/23 13:12:08;;;;;;;22.92;15.85;;;;;;;16.48;51.96;98203.09;5053574;28;20136;-74
2024/03/23 13:14:35;;;;;;;20.27;13.80;;;;;;;16.46;50.86;98194.41;5053597;28;20052;-73
2024/03/23 13:17:04;;;;;;;18.00;12.90;;;;;;;16.17;50.47;98196.63;5053730;28;20136;-74
2024/03/23 13:19:30;;;;;;;18.10;11.57;;;;;;;16.19;50.89;98191.28;5053426;28;20403;-74
2024/03/23 13:21:58;;;;;;;29.05;18.83;;;;;;;16.12;51.01;98177.56;5053559;28;20095;-74
2024/03/23 13:24:24;;;;;;;18.30;12.57;;;;;;;15.88;50.99;98175.13;5053577;28;20072;-74
2024/03/23 13:26:51;;;;;;;19.48;12.90;;;;;;;15.81;51.71;98171.06;5052967;28;20107;-73
2024/03/23 13:29:17;;;;;;;18.75;11.93;;;;;;;15.84;51.32;98157.81;5053235;28;20139;-73
2024/03/23 13:31:43;;;;;;;19.50;13.60;;;;;;;15.70;52.14;98160.16;5052860;28;20051;-73
2024/03/23 13:34:11;;;;;;;19.50;12.70;;;;;;;15.77;52.26;98153.75;5053178;28;20056;-73
2024/03/23 13:36:38;;;;;;;26.52;13.57;;;;;;;15.61;52.21;98150.91;5053390;28;20172;-73
2024/03/23 13:39:09;;;;;;;24.30;14.10;;;;;;;15.68;52.15;98156.75;5052711;28;20123;-73
2024/03/23 13:41:35;;;;;;;20.77;14.40;;;;;;;15.72;51.45;98150.44;5053006;28;20045;-73
2024/03/23 13:44:01;;;;;;;23.27;14.18;;;;;;;15.72;51.62;98150.44;5052799;28;20045;-73
2024/03/23 13:46:28;;;;;;;19.52;13.50;;;;;;;15.70;51.05;98149.66;5053454;28;20141;-72
2024/03/23 13:48:53;;;;;;;16.85;12.63;;;;;;;15.56;51.24;98142.38;5068321;28;20076;-73
2024/03/23 13:51:26;;;;;;;17.35;12.20;;;;;;;15.55;51.35;98138.06;5067276;28;20077;-73
2024/03/23 13:53:53;;;;;;;18.23;12.63;;;;;;;15.55;51.31;98138.91;5058193;28;20514;-74
2024/03/23 13:56:19;;;;;;;16.85;11.88;;;;;;;15.56;51.50;98126.63;5052567;28;20053;-74
2024/03/23 13:58:46;;;;;;;19.48;12.18;;;;;;;15.54;51.80;98123.22;5052983;28;20128;-74
2024/03/23 14:01:14;;;;;;;17.38;12.77;;;;;;;15.45;51.80;98129.75;5053100;28;20516;-74
2024/03/23 14:03:40;;;;;;;16.42;12.50;;;;;;;15.43;51.91;98115.84;5053238;28;20099;-74
2024/03/23 14:06:07;;;;;;;18.67;13.30;;;;;;;15.37;51.87;98126.56;5070220;28;20037;-74
2024/03/23 14:08:35;;;;;;;18.15;13.60;;;;;;;15.32;52.13;98118.06;5073156;28;20052;-73
2024/03/23 14:11:03;;;;;;;17.80;13.82;;;;;;;15.31;52.75;98118.97;5056918;28;20053;-73
2024/03/23 14:13:29;;;;;;;18.45;12.52;;;;;;;15.33;52.22;98110.13;5052282;28;20045;-73
2024/03/23 14:15:56;;;;;;;19.27;13.85;;;;;;;15.32;52.21;98110.19;5052481;28;20041;-73
2024/03/23 14:18:22;;;;;;;18.98;13.77;;;;;;;15.25;52.12;98106.97;5052239;28;20126;-73
2024/03/23 14:20:49;;;;;;;18.20;12.35;;;;;;;15.29;52.55;98110.31;5052075;28;20065;-74
2024/03/23 14:23:15;;;;;;;16.75;12.23;;;;;;;15.19;52.32;98107.25;5052303;28;20120;-74
2024/03/23 14:25:43;;;;;;;15.10;11.55;;;;;;;15.20;51.92;98111.59;5052262;28;20048;-73
2024/03/23 14:28:14;;;;;;;16.92;11.35;;;;;;;15.18;51.73;98092.44;5051673;28;20049;-73
2024/03/23 14:30:40;;;;;;;17.50;11.30;;;;;;;15.13;50.82;98102.25;5052333;28;20190;-73
2024/03/23 14:33:06;;;;;;;19.15;10.80;;;;;;;15.11;51.06;98099.69;5051969;28;20132;-74
2024/03/23 14:35:33;;;;;;;16.77;11.40;;;;;;;15.04;50.37;98093.00;5052042;28;20051;-74
2024/03/23 14:37:59;;;;;;;18.45;10.15;;;;;;;15.06;49.59;98090.31;5052201;28;20068;-73
2024/03/23 14:40:27;;;;;;;16.30;10.18;;;;;;;15.09;49.92;98096.28;5051731;28;20052;-74
2024/03/23 14:42:54;;;;;;;15.90;10.00;;;;;;;14.99;48.49;98079.25;5051743;28;20056;-73
2024/03/23 14:45:22;;;;;;;14.18;9.52;;;;;;;15.04;48.93;98077.25;5051732;28;20511;-73
2024/03/23 14:47:47;;;;;;;14.95;9.13;;;;;;;15.02;48.28;98079.09;5051447;28;20076;-73
2024/03/23 14:50:15;;;;;;;17.70;9.40;;;;;;;15.02;48.95;98073.84;5051689;28;20527;-73
2024/03/23 14:52:41;;;;;;;14.07;8.90;;;;;;;15.06;48.60;98071.97;5051358;28;20464;-73
2024/03/23 14:55:08;;;;;;;15.23;9.13;;;;;;;15.05;48.51;98073.75;5051677;28;20049;-74
2024/03/23 14:57:34;;;;;;;17.83;10.30;;;;;;;15.05;48.37;98065.03;5051498;28;20044;-74
2024/03/23 15:00:04;;;;;;;20.20;9.85;;;;;;;15.06;48.38;98053.59;5051301;28;20059;-73
2024/03/23 15:02:31;;;;;;;18.00;9.48;;;;;;;15.10;47.82;98063.91;5051906;28;20107;-74
2024/03/23 15:04:59;;;;;;;17.20;9.75;;;;;;;15.13;48.01;98049.81;5051273;28;20045;-72
2024/03/23 15:07:25;;;;;;;18.42;9.48;;;;;;;15.09;47.69;98043.84;5051294;28;20053;-74
2024/03/23 15:09:52;;;;;;;17.10;9.93;;;;;;;15.05;47.59;98047.50;5051364;28;20063;-73
2024/03/23 15:12:18;;;;;;;17.95;9.93;;;;;;;15.10;47.87;98044.66;5051042;28;20132;-73
2024/03/23 15:14:45;;;;;;;17.52;10.00;;;;;;;15.13;47.48;98041.94;5051252;28;20132;-74
2024/03/23 15:17:13;;;;;;;21.85;12.35;;;;;;;15.13;47.40;98037.53;5050388;28;20041;-73
2024/03/23 15:19:40;;;;;;;15.93;10.18;;;;;;;15.13;47.39;98029.66;5051306;28;20045;-73
2024/03/23 15:22:05;;;;;;;18.70;10.85;;;;;;;15.11;47.67;98031.50;5050946;28;20134;-73
2024/03/23 15:24:34;;;;;;;16.02;10.52;;;;;;;15.12;47.81;98030.59;5051168;28;20475;-74
2024/03/23 15:26:59;;;;;;;18.27;11.65;;;;;;;15.14;47.93;98025.25;5050984;28;20059;-73
2024/03/23 15:29:26;;;;;;;18.83;12.15;;;;;;;15.05;48.05;98023.06;5050764;28;20049;-74
2024/03/23 15:31:52;;;;;;;19.75;11.70;;;;;;;15.06;48.03;98028.25;5050980;28;20139;-74
2024/03/23 15:34:21;;;;;;;17.20;10.98;;;;;;;15.08;48.53;98025.53;5050701;28;20426;-73
2024/03/23 15:36:47;;;;;;;18.77;10.45;;;;;;;15.07;48.63;98027.31;5050668;28;20452;-73
2024/03/23 15:39:14;;;;;;;14.32;9.70;;;;;;;15.07;48.56;98021.22;5050888;28;20083;-74
2024/03/23 15:41:40;;;;;;;16.10;10.57;;;;;;;15.03;48.11;98022.28;5050739;28;20049;-74
2024/03/23 15:44:07;;;;;;;17.02;10.63;;;;;;;15.04;48.41;98022.19;5050830;28;20055;-73
2024/03/23 15:46:32;;;;;;;14.77;10.13;;;;;;;15.04;48.54;98024.81;5050896;28;20140;-74
2024/03/23 15:48:59;;;;;;;15.98;10.48;;;;;;;15.00;48.45;98019.78;5050753;28;20049;-74
2024/03/23 15:51:32;;;;;;;16.13;9.77;;;;;;;15.00;48.46;98019.78;5050912;28;20048;-73
2024/03/23 15:54:00;;;;;;;13.80;9.70;;;;;;;14.95;49.08;98025.22;5050481;28;20052;-74
2024/03/23 15:56:26;;;;;;;15.50;9.88;;;;;;;14.90;49.19;98016.69;5050646;28;20586;-74
2024/03/23 15:58:53;;;;;;;16.63;10.05;;;;;;;14.85;49.78;98016.03;5050388;28;20128;-73
2024/03/23 16:01:18;;;;;;;19.98;9.70;;;;;;;14.84;49.85;98017.81;5050557;28;20099;-73
2024/03/23 16:03:45;;;;;;;14.90;8.98;;;;;;;14.81;49.77;98015.34;5050830;28;20085;-74
2024/03/23 16:06:11;;;;;;;13.30;9.25;;;;;;;14.84;49.51;98009.94;5050599;28;20072;-74
2024/03/23 16:08:39;;;;;;;13.65;9.13;;;;;;;14.82;49.79;98013.56;5050211;28;20623;-74
2024/03/23 16:11:05;;;;;;;14.07;9.88;;;;;;;14.77;49.78;98019.84;5050650;28;20120;-73
2024/03/23 16:13:32;;;;;;;14.43;9.88;;;;;;;14.77;50.13;98022.47;5050166;28;20558;-74
2024/03/23 16:15:58;;;;;;;14.32;10.52;;;;;;;14.76;49.64;98019.91;5050638;28;20047;-73
2024/03/23 16:18:25;;;;;;;15.95;11.00;;;;;;;14.75;49.92;98024.31;5050170;28;20049;-74
2024/03/23 16:20:54;;;;;;;13.82;10.02;;;;;;;14.78;49.95;98023.31;5050170;28;20136;-73
2024/03/23 16:23:21;;;;;;;17.40;10.57;;;;;;;14.74;50.49;98022.59;5049298;28;20045;-73
2024/03/23 16:25:55;;;;;;;16.83;10.45;;;;;;;14.73;49.98;98028.78;5049899;28;20128;-72
2024/03/23 16:28:23;;;;;;;;;;;;;;;14.75;50.21;98026.06;5051164;28;20412;-73
2024/03/23 16:30:56;;;;;;;15.20;9.25;;;;;;;14.75;50.59;98031.31;5052509;28;19921;-73
2024/03/23 16:33:23;;;;;;;15.48;9.82;;;;;;;14.69;51.17;98019.31;5035736;28;20120;-74
2024/03/23 16:35:56;;;;;;;15.07;9.65;;;;;;;14.66;50.43;98023.84;5053803;28;20124;-74
2024/03/23 16:38:22;;;;;;;20.17;10.02;;;;;;;14.65;50.65;98017.75;5042611;28;20414;-73
2024/03/23 16:40:54;;;;;;;18.27;10.85;;;;;;;14.64;50.78;98013.44;5045627;28;20125;-73
2024/03/23 16:43:22;;;;;;;19.98;12.65;;;;;;;14.59;51.20;98015.38;5037191;28;20053;-73
2024/03/23 16:45:52;;;;;;;16.45;11.57;;;;;;;14.61;51.22;98016.16;5053964;28;20049;-72
2024/03/23 16:48:19;;;;;;;20.25;12.18;;;;;;;14.57;51.61;98001.50;5044490;28;20441;-74
2024/03/23 16:50:45;;;;;;;22.33;12.77;;;;;;;14.55;51.62;98011.16;5043313;28;20455;-73
2024/03/23 16:53:12;;;;;;;22.58;13.88;;;;;;;14.51;51.81;98010.44;5040511;28;20047;-74
2024/03/23 16:55:37;;;;;;;21.33;12.90;;;;;;;14.47;51.85;98008.00;5034078;28;20388;-74
2024/03/23 16:58:06;;;;;;;23.23;13.00;;;;;;;14.47;51.48;98008.00;5036798;28;20044;-73
2024/03/23 17:00:31;;;;;;;23.83;12.98;;;;;;;14.44;51.73;98013.38;5048582;28;20468;-73
2024/03/23 17:02:58;;;;;;;22.02;12.75;;;;;;;14.40;51.90;97998.69;5053858;28;20040;-74
2024/03/23 17:05:24;;;;;;;20.27;12.35;;;;;;;14.33;51.47;97993.72;5044740;28;20041;-73
2024/03/23 17:07:51;;;;;;;18.63;12.60;;;;;;;14.38;51.46;97999.63;5042635;28;20144;-72
2024/03/23 17:10:17;;;;;;;16.38;11.40;;;;;;;14.38;51.81;98009.22;5044222;28;20057;-73
2024/03/23 17:12:43;;;;;;;16.58;11.40;;;;;;;14.32;51.73;98007.72;5041539;28;20072;-73
2024/03/23 17:15:11;;;;;;;19.75;13.00;;;;;;;14.32;51.81;98002.47;5041172;28;20528;-74
2024/03/23 17:17:38;;;;;;;18.70;12.70;;;;;;;14.31;51.90;98007.78;5034883;28;20072;-73
2024/03/23 17:20:06;;;;;;;19.95;13.00;;;;;;;14.26;52.31;98014.97;5053276;28;20140;-73
2024/03/23 17:22:33;;;;;;;19.20;12.82;;;;;;;14.27;52.37;98007.06;5057026;28;20052;-73
2024/03/23 17:24:58;;;;;;;19.58;12.70;;;;;;;14.25;52.36;98013.25;5046109;28;20471;-74
2024/03/23 17:27:25;;;;;;;19.33;12.75;;;;;;;14.28;52.18;98011.38;5043215;28;20040;-73
2024/03/23 17:29:51;;;;;;;17.00;12.40;;;;;;;14.26;52.83;98021.06;5043395;28;20057;-72
2024/03/23 17:32:19;;;;;;;33.13;22.77;;;;;;;14.26;52.43;98021.06;5047856;28;20132;-72
2024/03/23 17:34:45;;;;;;;19.25;12.65;;;;;;;14.24;52.09;98016.81;5054152;28;20099;-72
2024/03/23 17:37:12;;;;;;;18.90;11.77;;;;;;;14.24;52.34;98011.56;5065114;28;20132;-72
2024/03/23 17:39:37;;;;;;;16.65;11.20;;;;;;;14.23;52.50;98021.19;5067015;28;20072;-73
2024/03/23 17:42:04;;;;;;;16.75;11.38;;;;;;;14.19;52.61;98014.38;5048647;28;20526;-72
2024/03/23 17:44:30;;;;;;;19.85;11.80;;;;;;;14.18;52.84;98025.75;5041700;28;20132;-73
2024/03/23 17:46:57;;;;;;;17.05;11.07;;;;;;;14.14;52.73;98025.03;5042492;28;20120;-73
2024/03/23 17:49:24;;;;;;;16.40;11.38;;;;;;;14.14;52.69;98024.19;5043281;28;20155;-74
2024/03/23 17:51:51;;;;;;;17.63;11.63;;;;;;;14.11;53.13;98026.91;5041553;28;20045;-73
2024/03/23 17:54:19;;;;;;;16.27;11.45;;;;;;;14.09;52.90;98023.50;5042201;28;20131;-73
2024/03/23 17:56:46;;;;;;;18.63;10.60;;;;;;;14.07;52.80;98030.56;5043410;28;20143;-73
2024/03/23 17:59:12;;;;;;;18.45;10.50;;;;;;;14.10;52.77;98028.69;5037938;28;20539;-73
2024/03/23 18:01:39;;;;;;;14.15;10.00;;;;;;;14.08;52.98;98027.91;5032287;28;20072;-73
2024/03/23 18:04:04;;;;;;;17.55;11.40;;;;;;;14.10;52.63;98018.22;5032671;28;20140;-72
2024/03/23 18:06:32;;;;;;;15.93;11.27;;;;;;;14.07;53.44;98009.63;5030973;28;20072;-73
2024/03/23 18:08:58;;;;;;;16.30;11.50;;;;;;;14.05;53.61;98003.59;5032499;28;20049;-74
2024/03/23 18:11:25;;;;;;;16.23;11.38;;;;;;;14.04;53.12;98004.53;5032408;28;20655;-74
2024/03/23 18:13:51;;;;;;;19.60;11.63;;;;;;;14.02;53.02;98003.72;5031942;28;20054;-73
2024/03/23 18:16:17;;;;;;;16.13;11.13;;;;;;;14.01;53.66;98015.94;5032472;28;20093;-73
2024/03/23 18:18:45;;;;;;;15.82;10.90;;;;;;;13.99;53.58;98018.63;5032294;28;20125;-73
2024/03/23 18:21:12;;;;;;;16.63;10.32;;;;;;;13.96;53.57;98012.69;5032228;28;20387;-74
2024/03/23 18:23:38;;;;;;;16.77;11.23;;;;;;;13.93;54.05;98013.63;5032246;28;20045;-73
2024/03/23 18:26:06;;;;;;;18.52;11.40;;;;;;;13.89;53.51;98005.97;5031903;28;20629;-73
2024/03/23 18:28:32;;;;;;;17.02;10.98;;;;;;;13.86;53.63;98006.97;5032105;28;20107;-73
2024/03/23 18:30:58;;;;;;;15.45;11.07;;;;;;;13.85;53.67;98009.63;5032262;28;20061;-74
2024/03/23 18:33:24;;;;;;;17.63;11.10;;;;;;;13.81;54.26;98006.28;5034577;28;20059;-73
2024/03/23 18:35:51;;;;;;;21.05;12.48;;;;;;;13.77;54.23;98000.28;5045101;28;20190;-74
2024/03/23 18:38:17;;;;;;;19.70;12.15;;;;;;;13.76;53.97;97988.13;5042155;28;20468;-74
2024/03/23 18:40:46;;;;;;;16.40;11.93;;;;;;;13.73;54.24;97990.88;5031834;28;20049;-74
2024/03/23 18:43:12;;;;;;;16.90;12.00;;;;;;;13.70;54.82;97990.97;5031579;28;20045;-74
2024/03/23 18:45:46;;;;;;;18.13;11.68;;;;;;;13.68;54.47;97991.94;5031559;28;20119;-74
2024/03/23 18:48:12;;;;;;;17.35;12.30;;;;;;;13.64;55.02;97999.06;5031985;28;20152;-74
2024/03/23 18:50:40;;;;;;;18.00;11.98;;;;;;;13.61;55.17;97991.34;5032778;28;20479;-73
2024/03/23 18:53:06;;;;;;;18.08;12.73;;;;;;;13.59;54.75;97988.78;5049277;28;20435;-73
2024/03/23 18:55:33;;;;;;;18.02;12.63;;;;;;;13.58;55.17;97981.84;5050636;28;20071;-74
2024/03/23 18:58:00;;;;;;;19.20;12.32;;;;;;;13.56;54.79;97982.81;5051356;28;20143;-73
2024/03/23 19:00:26;;;;;;;19.08;12.35;;;;;;;13.54;54.92;97984.63;5051843;28;20065;-72
2024/03/23 19:02:52;;;;;;;18.45;12.05;;;;;;;13.51;54.88;97982.13;5051025;28;20719;-73
2024/03/23 19:05:19;;;;;;;17.83;12.75;;;;;;;13.50;55.09;97975.19;5051219;28;20045;-74
2024/03/23 19:07:44;;;;;;;18.98;12.35;;;;;;;13.48;55.34;97969.19;5045130;28;20052;-73
2024/03/23 19:10:11;;;;;;;20.85;12.63;;;;;;;13.47;55.74;97962.22;5051000;28;20053;-73
2024/03/23 19:12:37;;;;;;;18.58;12.48;;;;;;;13.46;55.57;97969.22;5051533;28;20120;-73
2024/03/23 19:15:08;;;;;;;18.85;12.00;;;;;;;13.44;55.95;97960.59;5051353;28;20380;-74
2024/03/23 19:17:33;;;;;;;20.20;13.20;;;;;;;13.42;55.36;97954.56;5051360;28;20129;-80
2024/03/23 19:20:00;;;;;;;24.50;12.65;;;;;;;13.37;56.70;97949.50;5051360;28;20056;-81
2024/03/23 19:22:26;;;;;;;20.17;12.82;;;;;;;13.32;56.32;97948.81;5001251;28;20159;-81
